Time;durP1;ratioP1;P1;durP2;ratioP2;P2;SDS_P1;SDS_P2;PMS_P1;PMS_P2;Temp;Humidity;BMP_temperature;BMP_pressure;BME280_temperature;BME280_humidity;BME280_pressure;Samples;Min_cycle;Max_cycle;Signal;HPM_P1;HPM_P2
2021/11/01 00:01:06;;;;;;;9.77;1.33;;;10.50;99.90;;;8.88;100.00;99601.66;2567932;30;137244;-40
2021/11/01 00:03:34;;;;;;;10.60;1.45;;;10.50;99.90;;;8.92;100.00;99602.84;2567623;30;137491;-41
2021/11/01 00:06:02;;;;;;;7.40;1.35;;;10.50;99.90;;;8.83;100.00;99605.06;2567632;30;138620;-40
2021/11/01 00:08:30;;;;;;;7.45;1.65;;;10.40;99.90;;;8.76;100.00;99596.19;2567156;30;137254;-40
2021/11/01 00:10:58;;;;;;;4.60;1.00;;;10.40;99.90;;;8.69;100.00;99590.81;2565719;30;138904;-38
2021/11/01 00:13:26;;;;;;;8.27;1.50;;;10.30;99.90;;;8.64;100.00;99604.28;2567882;30;137765;-38
2021/11/01 00:15:53;;;;;;;;;;;10.30;99.90;;;8.65;100.00;99592.34;2567220;30;137123;-40
2021/11/01 00:18:20;;;;;;;8.50;1.60;;;10.20;99.90;;;8.56;100.00;99591.03;2568219;30;137138;-40
2021/11/01 00:20:48;;;;;;;7.18;1.30;;;10.20;99.90;;;8.51;100.00;99585.44;2566511;30;137290;-40
2021/11/01 00:23:15;;;;;;;9.15;1.75;;;10.10;99.90;;;8.39;100.00;99588.06;2567119;30;138222;-40
2021/11/01 00:25:43;;;;;;;9.00;1.30;;;10.10;99.90;;;8.36;100.00;99605.66;2568014;30;138385;-40
2021/11/01 00:28:11;;;;;;;3.22;1.10;;;10.00;99.90;;;8.34;100.00;99594.19;2569292;30;137644;-40
2021/11/01 00:30:39;;;;;;;5.00;1.27;;;10.00;99.90;;;8.29;100.00;99599.47;2566149;30;138995;-40
2021/11/01 00:33:06;;;;;;;6.22;1.20;;;9.90;99.90;;;8.28;100.00;99601.34;2567332;30;137545;-40
2021/11/01 00:35:34;;;;;;;6.60;1.95;;;9.90;99.90;;;8.33;100.00;99597.97;2565911;30;139092;-40
2021/11/01 00:38:01;;;;;;;8.82;1.55;;;9.90;99.90;;;8.28;100.00;99590.47;2569070;30;137488;-40
2021/11/01 00:40:29;;;;;;;11.57;1.80;;;9.90;99.90;;;8.29;100.00;99592.13;2566791;30;137400;-40
2021/11/01 00:42:57;;;;;;;7.78;1.50;;;9.90;99.90;;;8.29;100.00;99594.84;2568795;30;137508;-40
2021/11/01 00:45:24;;;;;;;5.88;1.42;;;9.90;99.90;;;8.30;100.00;99587.56;2569073;30;138042;-40
2021/11/01 00:47:52;;;;;;;7.70;1.60;;;9.90;99.90;;;8.25;100.00;99587.41;2568226;30;137530;-40
2021/11/01 00:50:20;;;;;;;7.72;1.40;;;9.90;99.90;;;8.24;100.00;99588.47;2569545;30;139124;-40
2021/11/01 00:52:47;;;;;;;;;;;9.80;99.90;;;8.26;100.00;99587.16;2566051;30;137414;-40
2021/11/01 00:55:35;;;;;;;8.77;1.48;;;9.90;99.90;;;8.30;100.00;99582.13;2567792;30;138477;-40
2021/11/01 00:58:04;;;;;;;9.93;1.77;;;9.90;99.90;;;8.28;100.00;99585.03;2568766;30;137653;-40
2021/11/01 01:00:33;;;;;;;6.55;1.33;;;9.90;99.90;;;8.26;100.00;99583.63;2568192;30;138131;-41
2021/11/01 01:03:00;;;;;;;4.70;1.50;;;9.90;99.90;;;8.18;100.00;99582.84;2567123;30;136771;-40
2021/11/01 01:05:28;;;;;;;10.55;1.60;;;9.80;99.90;;;8.17;100.00;99586.63;2566491;30;137266;-40
2021/11/01 01:07:56;;;;;;;9.38;1.67;;;9.80;99.90;;;8.07;100.00;99589.88;2568795;30;137745;-40
2021/11/01 01:10:24;;;;;;;6.63;1.23;;;9.70;99.90;;;8.07;100.00;99583.63;2568572;30;138514;-40
2021/11/01 01:12:51;;;;;;;9.10;1.80;;;9.70;99.90;;;8.03;100.00;99585.13;2568037;30;138169;-40
2021/11/01 01:15:29;;;;;;;8.40;1.20;;;9.70;99.90;;;8.06;100.00;99587.41;2568166;30;137573;-40
2021/11/01 01:18:03;;;;;;;4.78;1.23;;;9.60;99.90;;;8.03;100.00;99585.13;2568128;30;137756;-40
2021/11/01 01:20:30;;;;;;;7.07;1.55;;;9.70;99.90;;;7.99;100.00;99579.31;2569412;30;138193;-40
2021/11/01 01:22:58;;;;;;;7.63;1.42;;;9.60;99.90;;;7.99;100.00;99578.50;2569127;30;137552;-40
2021/11/01 01:25:44;;;;;;;6.80;1.65;;;9.60;99.90;;;7.94;100.00;99573.75;2568427;30;138365;-40
2021/11/01 01:28:14;;;;;;;7.05;1.77;;;9.60;99.90;;;7.94;100.00;99572.91;2568090;30;136851;-40
2021/11/01 01:30:42;;;;;;;5.97;2.13;;;9.60;99.90;;;8.06;100.00;99581.97;2567611;30;138451;-40
2021/11/01 01:33:10;;;;;;;8.20;2.05;;;9.60;99.90;;;8.07;100.00;99584.44;2568058;30;137572;-40
2021/11/01 01:35:42;;;;;;;8.27;2.28;;;9.60;99.90;;;8.09;100.00;99573.38;2566255;30;137378;-40
2021/11/01 01:38:15;;;;;;;7.30;2.10;;;9.60;99.90;;;8.05;100.00;99569.44;2567475;30;137499;-40
2021/11/01 01:40:42;;;;;;;6.53;2.05;;;9.70;99.90;;;8.04;100.00;99567.78;2567436;30;137453;-40
2021/11/01 01:43:10;;;;;;;7.32;2.13;;;9.70;99.90;;;8.01;100.00;99570.97;2566243;30;137794;-40
2021/11/01 01:45:37;;;;;;;9.43;1.90;;;9.60;99.90;;;8.02;100.00;99569.91;2568606;30;136984;-40
2021/11/01 01:48:06;;;;;;;5.82;1.88;;;9.60;99.90;;;7.98;100.00;99569.50;2566963;30;138376;-40
2021/11/01 01:50:34;;;;;;;7.82;1.77;;;9.60;99.90;;;7.88;100.00;99556.47;2568332;30;137873;-41
2021/11/01 01:53:04;;;;;;;5.60;1.70;;;9.50;99.90;;;7.90;100.00;99565.19;2567642;30;137861;-40
2021/11/01 01:55:35;;;;;;;4.15;1.85;;;9.50;99.90;;;7.86;100.00;99564.00;2567883;30;139027;-40
2021/11/01 01:58:04;;;;;;;5.97;1.65;;;9.50;99.90;;;7.85;100.00;99566.97;2567974;30;139433;-40
2021/11/01 02:00:52;;;;;;;7.55;1.60;;;9.50;99.90;;;7.83;100.00;99569.88;2568022;30;138518;-40
2021/11/01 02:03:21;;;;;;;10.30;1.90;;;9.50;99.90;;;7.79;100.00;99563.25;2568020;30;137508;-40
2021/11/01 02:06:08;;;;;;;;;;;9.50;99.90;;;7.76;100.00;99561.00;2567879;30;137500;-40
2021/11/01 02:09:21;;;;;;;5.90;1.42;;;9.40;99.90;;;7.71;100.00;99566.25;2565624;30;137022;-40
2021/11/01 02:12:53;;;;;;;8.50;1.92;;;9.40;99.90;;;7.62;100.00;99558.38;2567455;30;138387;-40
2021/11/01 02:15:30;;;;;;;7.43;2.20;;;9.30;99.90;;;7.57;100.00;99563.66;2568212;30;137653;-40
2021/11/01 02:18:00;;;;;;;11.50;1.83;;;9.20;99.90;;;7.56;100.00;99562.00;2568256;30;139144;-40
2021/11/01 02:20:38;;;;;;;2.85;1.35;;;9.20;99.90;;;7.52;100.00;99563.50;2567871;30;136721;-40
2021/11/01 02:23:35;;;;;;;;;;;9.20;99.90;;;7.51;100.00;99561.00;2566485;30;138417;-40
2021/11/01 02:26:05;;;;;;;4.20;1.52;;;9.20;99.90;;;7.43;100.00;99562.16;2568267;30;137196;-40
2021/11/01 02:28:37;;;;;;;3.72;1.17;;;9.10;99.90;;;7.42;100.00;99557.75;2568664;30;139665;-40
2021/11/01 02:31:10;;;;;;;8.98;1.80;;;9.10;99.90;;;7.38;100.00;99549.25;2566155;30;137909;-40
2021/11/01 02:33:39;;;;;;;4.47;1.20;;;9.00;99.90;;;7.34;100.00;99550.75;2568640;30;137172;-41
2021/11/01 02:36:06;;;;;;;6.47;1.30;;;9.00;99.90;;;7.31;100.00;99557.44;2565605;30;137444;-40
2021/11/01 02:38:34;;;;;;;6.07;1.40;;;9.00;99.90;;;7.28;100.00;99551.59;2567457;30;139134;-40
2021/11/01 02:41:36;;;;;;;6.90;1.40;;;8.90;99.90;;;7.27;100.00;99552.66;2567257;30;137796;-40
2021/11/01 02:44:09;;;;;;;7.22;1.63;;;8.90;99.90;;;7.26;100.00;99546.41;2567146;30;138996;-40
2021/11/01 02:46:39;;;;;;;8.18;1.75;;;8.90;99.90;;;7.23;100.00;99552.28;2567387;30;137616;-40
2021/11/01 02:49:07;;;;;;;6.70;1.80;;;8.90;99.90;;;7.20;100.00;99547.31;2568573;30;138325;-40
2021/11/01 02:51:35;;;;;;;6.20;1.75;;;8.90;99.90;;;7.16;100.00;99537.94;2568871;30;137624;-40
2021/11/01 02:54:04;;;;;;;6.70;1.23;;;8.80;99.90;;;7.09;100.00;99534.44;2573054;30;138389;-39
2021/11/01 02:56:32;;;;;;;7.10;1.30;;;8.80;99.90;;;7.10;100.00;99544.25;2568990;30;138236;-39
2021/11/01 02:59:01;;;;;;;5.55;1.17;;;8.80;99.90;;;7.09;100.00;99542.59;2570453;30;137763;-39
2021/11/01 03:01:30;;;;;;;5.07;1.40;;;8.80;99.90;;;7.05;100.00;99537.59;2568064;30;137439;-39
2021/11/01 03:03:57;;;;;;;6.80;1.45;;;8.70;99.90;;;7.04;100.00;99535.13;2569598;30;137335;-39
2021/11/01 03:06:29;;;;;;;6.40;1.05;;;8.70;99.90;;;7.04;100.00;99530.53;2569075;30;136733;-39
2021/11/01 03:08:58;;;;;;;6.65;1.52;;;8.70;99.90;;;7.01;100.00;99536.41;2569463;30;137437;-39
2021/11/01 03:11:28;;;;;;;4.75;1.25;;;8.70;99.90;;;7.03;100.00;99534.28;2568767;30;136831;-39
2021/11/01 03:13:58;;;;;;;4.75;1.05;;;8.70;99.90;;;7.05;100.00;99523.22;2568219;30;138833;-39
2021/11/01 03:16:28;;;;;;;6.18;1.05;;;8.70;99.90;;;7.09;100.00;99521.72;2568313;30;137687;-39
2021/11/01 03:19:18;;;;;;;2.85;1.08;;;8.70;99.90;;;7.16;100.00;99529.78;2569558;30;138517;-38
2021/11/01 03:21:48;;;;;;;9.07;1.20;;;8.80;99.90;;;7.16;100.00;99532.50;2569826;30;136859;-39
2021/11/01 03:24:17;;;;;;;5.65;1.17;;;8.80;99.90;;;7.13;100.00;99533.78;2566550;30;138719;-38
2021/11/01 03:26:48;;;;;;;5.88;1.33;;;8.80;99.90;;;7.14;100.00;99532.75;2568933;30;138146;-39
2021/11/01 03:29:20;;;;;;;3.72;1.10;;;8.80;99.90;;;7.11;100.00;99530.47;2566928;30;139433;-39
2021/11/01 03:31:50;;;;;;;5.22;1.20;;;8.80;99.90;;;7.21;100.00;99538.13;2569566;30;138005;-39
2021/11/01 03:34:20;;;;;;;7.05;1.60;;;8.80;99.90;;;7.25;100.00;99531.19;2570851;30;139096;-37
2021/11/01 03:36:50;;;;;;;7.78;2.13;;;8.90;99.90;;;7.20;100.00;99539.16;2568945;30;138203;-39
2021/11/01 03:39:20;;;;;;;9.43;1.50;;;8.80;99.90;;;7.17;100.00;99550.47;2568468;30;138983;-39
2021/11/01 03:41:50;;;;;;;7.32;1.40;;;8.80;99.90;;;7.16;100.00;99548.78;2569391;30;137758;-39
2021/11/01 03:44:25;;;;;;;5.35;1.42;;;8.80;99.90;;;7.15;100.00;99549.84;2568219;30;138551;-38
2021/11/01 03:46:57;;;;;;;5.03;1.40;;;8.80;99.90;;;7.10;100.00;99541.53;2568780;30;137412;-39
2021/11/01 03:49:28;;;;;;;6.85;1.67;;;8.80;99.90;;;7.15;100.00;99555.25;2569978;30;138419;-39
2021/11/01 03:52:16;;;;;;;5.72;1.20;;;8.80;99.90;;;7.16;100.00;99554.22;2568672;30;139140;-39
2021/11/01 03:54:44;;;;;;;5.18;1.50;;;8.80;99.90;;;7.19;100.00;99548.38;2567852;30;138415;-39
2021/11/01 03:57:13;;;;;;;7.57;1.73;;;8.80;99.90;;;7.16;100.00;99555.03;2567597;30;137561;-39
2021/11/01 03:59:41;;;;;;;7.78;1.65;;;8.80;99.90;;;7.22;100.00;99557.91;2568904;30;137380;-39
2021/11/01 04:02:15;;;;;;;6.13;1.50;;;8.90;99.90;;;7.19;100.00;99560.03;2569229;30;137551;-39
2021/11/01 04:04:46;;;;;;;6.93;1.70;;;8.90;99.90;;;7.22;100.00;99563.34;2568861;30;138337;-39
2021/11/01 04:07:14;;;;;;;7.35;1.73;;;8.90;99.90;;;7.20;100.00;99555.44;2569884;30;136862;-39
2021/11/01 04:09:43;;;;;;;6.00;1.90;;;8.80;99.90;;;7.19;100.00;99560.03;2571309;30;137250;-39
2021/11/01 04:12:13;;;;;;;5.65;1.65;;;8.80;99.90;;;7.15;100.00;99552.53;2571197;30;136951;-39
2021/11/01 04:14:48;;;;;;;5.03;1.60;;;8.80;99.90;;;7.16;100.00;99551.50;2569385;30;138474;-39
2021/11/01 04:17:37;;;;;;;5.40;1.75;;;8.80;99.90;;;7.13;100.00;99555.50;2568914;30;137085;-39
2021/11/01 04:23:04;;;;;;;3.95;1.45;;;8.80;99.90;;;7.19;100.00;99557.31;2569215;30;137523;-39
2021/11/01 04:25:32;;;;;;;7.32;1.45;;;8.80;99.90;;;7.20;100.00;99558.16;2569639;30;137837;-39
2021/11/01 04:28:02;;;;;;;6.18;1.70;;;8.80;99.90;;;7.23;100.00;99556.88;2569151;30;137675;-39
2021/11/01 04:30:42;;;;;;;5.13;1.50;;;8.80;99.90;;;7.20;100.00;99553.56;2569767;30;138504;-39
2021/11/01 04:33:14;;;;;;;6.63;1.27;;;8.80;99.90;;;7.19;100.00;99553.78;2570670;30;137394;-39
2021/11/01 04:35:43;;;;;;;5.13;1.30;;;8.80;99.90;;;7.19;100.00;99551.06;2569375;30;138999;-39
2021/11/01 04:38:38;;;;;;;4.40;1.40;;;8.80;99.90;;;7.16;100.00;99556.91;2569088;30;138309;-39
2021/11/01 04:41:22;;;;;;;4.60;1.50;;;8.80;99.90;;;7.10;100.00;99547.81;2569198;30;137226;-39
2021/11/01 04:54:36;;;;;;;4.25;1.30;;;8.80;99.90;;;7.25;100.00;99546.63;2569618;30;137483;-39
2021/11/01 04:57:04;;;;;;;6.82;1.30;;;8.90;99.90;;;7.25;100.00;99539.34;2569116;30;138300;-39
2021/11/01 04:59:33;;;;;;;5.72;1.95;;;8.80;99.90;;;7.26;100.00;99543.69;2568017;30;138644;-39
2021/11/01 05:02:01;;;;;;;8.75;1.80;;;8.90;99.90;;;7.25;100.00;99546.63;2570279;30;137336;-39
2021/11/01 05:04:32;;;;;;;;;;;8.80;99.90;;;7.01;100.00;99513.84;2569856;30;136859;-39
2021/11/01 05:07:02;;;;;;;5.15;1.45;;;8.80;99.90;;;7.20;100.00;99542.69;2568210;30;138461;-39
2021/11/01 05:09:37;;;;;;;7.65;1.65;;;8.80;99.90;;;7.18;100.00;99547.50;2568251;30;138667;-39
2021/11/01 05:14:38;;;;;;;4.40;1.80;;;8.80;99.90;;;7.13;100.00;99551.94;2570579;30;138429;-39
2021/11/01 05:19:44;;;;;;;5.07;1.73;;;8.80;99.90;;;7.12;100.00;99550.28;2566834;30;137716;-39
2021/11/01 05:22:31;;;;;;;7.85;1.98;;;8.70;99.90;;;7.16;100.00;99557.75;2569168;30;139219;-39
2021/11/01 05:25:21;;;;;;;4.90;1.48;;;8.80;99.90;;;7.10;100.00;99558.66;2568381;30;136883;-39
2021/11/01 05:30:34;;;;;;;4.50;1.13;;;8.80;99.90;;;7.21;100.00;99551.69;2571282;30;136740;-39
2021/11/01 05:33:11;;;;;;;6.82;1.35;;;8.80;99.90;;;7.20;100.00;99555.44;2567482;30;139633;-39
2021/11/01 05:35:41;;;;;;;4.75;1.23;;;8.80;99.90;;;7.19;100.00;99548.38;2568429;30;138430;-39
2021/11/01 05:38:09;;;;;;;4.93;1.30;;;8.80;99.90;;;7.20;100.00;99550.03;2569967;30;138116;-39
2021/11/01 05:40:37;;;;;;;5.68;1.45;;;8.80;99.90;;;7.14;100.00;99546.31;2569409;30;137552;-39
2021/11/01 05:43:05;;;;;;;;;;;8.80;99.90;;;7.14;100.00;99557.16;2569786;30;137866;-38
2021/11/01 05:45:33;;;;;;;6.70;1.35;;;8.80;99.90;;;7.09;100.00;99551.56;2568734;30;137178;-39
2021/11/01 05:48:03;;;;;;;4.93;1.38;;;8.70;99.90;;;7.09;100.00;99548.84;2569459;30;139044;-39
2021/11/01 05:50:36;;;;;;;7.95;1.48;;;8.70;99.90;;;7.11;100.00;99556.75;2569287;30;136943;-39
2021/11/01 05:53:08;;;;;;;6.32;1.40;;;8.70;99.90;;;7.07;100.00;99552.81;2567034;30;138409;-39
2021/11/01 06:13:57;;;;;;;5.68;1.17;;;8.60;99.90;;;7.08;100.00;99558.03;2565607;30;138588;-39
2021/11/01 06:16:25;;;;;;;7.38;1.65;;;8.60;99.90;;;7.09;99.83;99567.00;2567576;30;139040;-39
2021/11/01 06:18:53;;;;;;;4.57;1.50;;;8.70;99.90;;;7.00;100.00;99564.56;2570749;30;138867;-39
2021/11/01 06:21:21;;;;;;;5.53;1.33;;;8.70;99.90;;;6.99;100.00;99567.47;2568173;30;136959;-39
2021/11/01 06:23:54;;;;;;;5.70;1.38;;;8.60;99.90;;;6.99;100.00;99565.63;2569762;30;137385;-39
2021/11/01 06:26:23;;;;;;;4.93;1.38;;;8.60;99.90;;;6.95;100.00;99564.41;2568828;30;137425;-39
2021/11/01 06:28:56;;;;;;;5.25;1.30;;;8.60;99.90;;;6.95;99.76;99575.25;2569208;30;138150;-40
2021/11/01 06:31:29;;;;;;;9.27;1.42;;;8.60;99.90;;;6.94;100.00;99570.88;2569322;30;137373;-39
2021/11/01 06:34:19;;;;;;;6.80;1.38;;;8.60;99.90;;;6.97;99.36;99580.44;2570455;30;138324;-39
2021/11/01 06:42:57;;;;;;;7.43;1.60;;;8.60;99.90;;;6.92;99.81;99575.69;2567962;30;137066;-39
2021/11/01 06:53:28;;;;;;;9.57;1.40;;;8.60;99.90;;;7.01;99.23;99596.06;2569128;30;139287;-39
2021/11/01 06:58:51;;;;;;;8.85;1.38;;;8.60;99.90;;;7.07;99.04;99599.78;2567821;30;137440;-39
2021/11/01 07:15:16;;;;;;;6.07;1.30;;;8.90;99.90;;;7.33;97.63;99623.16;2569171;30;138399;-39
2021/11/01 07:17:48;;;;;;;9.68;1.30;;;8.90;99.90;;;7.39;97.22;99623.31;2568161;30;138580;-39
2021/11/01 08:25:02;;;;;;;8.40;1.60;;;10.70;99.90;;;9.32;87.82;99693.97;2566977;30;138251;-39
2021/11/01 08:43:58;;;;;;;6.68;1.27;;;10.80;99.90;;;9.44;86.70;99683.09;2567535;30;137795;-39
2021/11/01 08:47:05;;;;;;;8.20;1.35;;;10.80;99.90;;;9.49;87.02;99692.25;2568475;30;137318;-39
2021/11/01 09:26:40;;;;;;;6.07;1.15;;;12.10;99.90;;;10.88;81.62;99690.22;2568190;30;137909;-40
2021/11/01 09:42:29;;;;;;;6.13;1.17;;;12.40;99.90;;;11.06;77.07;99679.09;2566472;30;137923;-40
2021/11/01 09:44:57;;;;;;;5.43;1.00;;;12.40;99.90;;;11.15;77.06;99673.25;2567617;30;138295;-40
2021/11/01 09:47:25;;;;;;;5.22;1.13;;;12.50;99.90;;;11.24;77.65;99685.44;2568994;30;137328;-41
2021/11/01 09:49:53;;;;;;;5.15;1.00;;;12.50;99.90;;;11.23;76.89;99689.25;2566339;30;138541;-41
2021/11/01 09:52:21;;;;;;;3.72;1.17;;;12.60;99.90;;;11.27;77.30;99679.47;2569024;30;137640;-41
2021/11/01 09:54:53;;;;;;;6.28;0.95;;;12.60;99.90;;;11.34;76.38;99688.34;2567498;30;139003;-41
2021/11/01 09:57:34;;;;;;;5.25;0.90;;;12.60;99.90;;;11.32;75.91;99681.47;2569333;30;136993;-40
2021/11/01 10:00:04;;;;;;;7.28;1.38;;;12.60;99.90;;;11.25;74.69;99686.25;2568009;30;137249;-40
2021/11/01 10:02:46;;;;;;;6.75;0.95;;;12.60;99.90;;;11.08;76.72;99676.94;2568453;30;136664;-40
2021/11/01 10:05:28;;;;;;;6.13;1.08;;;12.50;99.90;;;11.12;77.35;99680.03;2565870;30;137658;-40
2021/11/01 10:07:56;;;;;;;4.88;1.00;;;12.50;99.90;;;11.08;77.14;99676.94;2567704;30;137552;-40
2021/11/01 10:10:23;;;;;;;3.53;1.00;;;12.50;99.90;;;11.14;76.83;99674.31;2568006;30;138086;-41
2021/11/01 10:12:53;;;;;;;4.65;0.88;;;12.50;99.90;;;11.26;77.05;99675.09;2568052;30;137443;-41
2021/11/01 10:18:17;;;;;;;4.57;1.00;;;12.60;99.90;;;11.27;75.00;99667.72;2568334;30;136844;-41
2021/11/01 10:20:56;;;;;;;5.43;0.90;;;12.60;99.90;;;11.35;75.74;99661.88;2567704;30;139282;-40
2021/11/01 10:23:33;;;;;;;4.90;0.88;;;12.70;99.90;;;11.49;75.41;99671.38;2566676;30;136644;-41
2021/11/01 10:26:17;;;;;;;7.20;0.90;;;12.70;99.90;;;11.52;74.40;99654.50;2564683;30;137235;-40
2021/11/01 10:28:53;;;;;;;3.92;1.15;;;12.80;99.90;;;11.81;74.44;99667.28;2566961;30;138518;-40
2021/11/01 10:31:27;;;;;;;5.90;0.70;;;13.00;99.90;;;11.92;74.00;99657.31;2567806;30;138269;-40
2021/11/01 10:34:09;;;;;;;6.05;0.90;;;13.20;99.90;;;12.21;70.60;99670.91;2567097;30;137347;-40
2021/11/01 10:36:45;;;;;;;5.03;0.90;;;13.40;99.90;;;12.50;70.78;99668.84;2566416;30;138612;-41
2021/11/01 10:39:21;;;;;;;5.50;1.38;;;13.60;99.90;;;12.71;71.01;99671.81;2566850;30;137340;-41
2021/11/01 10:45:21;;;;;;;5.95;1.02;;;14.00;99.90;;;12.96;68.98;99681.41;2567177;30;137645;-40
2021/11/01 11:13:06;;;;;;;3.05;0.60;;;13.80;99.90;;;12.49;66.14;99650.78;2567102;30;136912;-41
2021/11/01 11:15:39;;;;;;;5.35;0.70;;;13.80;99.90;;;12.58;67.40;99658.53;2567175;30;137460;-40
2021/11/01 11:20:55;;;;;;;3.42;0.63;;;13.90;99.90;;;12.76;64.25;99650.00;2567131;30;138313;-40
2021/11/01 11:29:05;;;;;;;2.47;0.70;;;14.20;99.90;;;12.90;60.83;99649.59;2566790;30;136916;-41
2021/11/01 11:38:23;;;;;;;4.03;0.82;;;14.10;99.90;;;13.03;63.80;99642.91;2567480;30;137423;-41
2021/11/01 11:43:51;;;;;;;5.75;1.00;;;14.40;99.90;;;13.18;61.55;99642.22;2567471;30;138484;-40
2021/11/01 11:49:18;;;;;;;2.50;0.70;;;14.30;99.90;;;12.78;62.49;99641.53;2565715;30;138772;-40
2021/11/01 11:52:10;;;;;;;4.05;1.30;;;14.20;99.90;;;12.76;62.00;99635.50;2567925;30;137432;-40
2021/11/01 11:54:46;;;;;;;3.28;0.70;;;14.20;99.90;;;12.62;61.76;99643.25;2565860;30;139445;-41
2021/11/01 11:57:33;;;;;;;3.60;0.65;;;14.00;99.90;;;12.62;63.81;99644.09;2567564;30;137487;-40
2021/11/01 12:00:05;;;;;;;3.78;0.55;;;14.00;99.90;;;12.46;63.35;99640.31;2567724;30;138415;-40
2021/11/01 12:02:49;;;;;;;2.80;0.63;;;13.90;99.90;;;12.31;62.15;99643.69;2567773;30;136815;-39
2021/11/01 12:05:39;;;;;;;3.03;0.60;;;13.80;99.90;;;12.31;62.78;99637.41;2567214;30;138202;-39
2021/11/01 12:08:23;;;;;;;3.10;0.60;;;13.70;99.90;;;12.36;64.33;99626.53;2567133;30;137941;-40
2021/11/01 12:19:15;;;;;;;3.03;0.55;;;13.80;99.90;;;12.62;64.19;99630.41;2565235;30;138136;-40
2021/11/01 12:21:51;;;;;;;4.63;0.80;;;13.90;99.90;;;12.65;61.66;99629.06;2566254;30;139345;-40
2021/11/01 12:24:23;;;;;;;3.08;0.32;;;13.90;99.90;;;12.72;63.47;99624.22;2569237;30;136981;-39
2021/11/01 12:27:04;;;;;;;2.67;0.55;;;14.00;99.90;;;12.83;61.41;99632.56;2567010;30;138054;-40
2021/11/01 12:29:35;;;;;;;4.70;0.50;;;14.10;99.90;;;12.83;61.10;99632.56;2568261;30;137829;-40
2021/11/01 12:32:09;;;;;;;2.63;0.60;;;14.10;99.90;;;12.70;61.38;99626.38;2567652;30;137617;-40
2021/11/01 12:34:59;;;;;;;2.92;0.55;;;14.10;99.90;;;12.73;61.65;99631.38;2569099;30;137213;-40
2021/11/01 12:37:33;;;;;;;4.03;0.77;;;14.10;99.90;;;12.65;63.79;99626.34;2568799;30;138442;-42
2021/11/01 12:40:26;;;;;;;2.42;0.75;;;14.00;99.90;;;12.61;63.77;99622.47;2568339;30;138156;-40
2021/11/01 12:57:32;;;;;;;4.40;0.63;;;14.00;99.90;;;12.79;63.01;99626.75;2567513;30;137030;-40
2021/11/01 13:00:01;;;;;;;4.00;0.80;;;14.10;99.90;;;12.77;62.86;99621.56;2568999;30;138308;-41
2021/11/01 13:02:35;;;;;;;2.13;0.52;;;14.10;99.90;;;12.84;63.24;99626.81;2565621;30;138274;-40
2021/11/01 13:05:13;;;;;;;3.47;0.90;;;14.10;99.90;;;12.85;60.51;99617.50;2567877;30;138309;-40
2021/11/01 13:10:42;;;;;;;4.47;0.77;;;14.20;99.90;;;12.80;62.17;99617.47;2568269;30;137594;-40
2021/11/01 13:19:15;;;;;;;3.28;0.80;;;14.20;99.90;;;12.73;60.28;99614.94;2567648;30;137689;-40
2021/11/01 13:21:54;;;;;;;3.35;0.85;;;14.10;99.90;;;12.64;61.29;99624.69;2567321;30;138244;-40
2021/11/01 13:24:58;;;;;;;5.03;0.90;;;14.00;99.90;;;12.62;62.15;99615.91;2569575;30;137497;-40
2021/11/01 13:27:45;;;;;;;6.20;0.50;;;14.00;99.90;;;12.72;59.90;99609.72;2569295;30;138662;-40
2021/11/01 13:38:56;;;;;;;2.50;0.60;;;13.90;99.90;;;12.58;60.37;99609.28;2568285;30;139011;-40
2021/11/01 13:41:30;;;;;;;4.07;0.70;;;13.90;99.90;;;12.65;62.21;99604.44;2569368;30;137570;-39
2021/11/01 13:44:15;;;;;;;5.28;1.30;;;13.90;99.90;;;12.63;61.26;99606.59;2569098;30;136929;-39
2021/11/01 13:46:55;;;;;;;4.35;0.93;;;14.00;99.90;;;12.63;61.67;99607.44;2568832;30;137485;-40
2021/11/01 13:49:27;;;;;;;3.17;0.90;;;14.00;99.90;;;12.66;62.17;99606.09;2567202;30;137522;-40
2021/11/01 13:52:09;;;;;;;4.15;0.63;;;14.00;99.90;;;12.68;59.78;99612.13;2568033;30;137479;-40
2021/11/01 13:54:48;;;;;;;5.35;0.93;;;14.00;99.90;;;12.75;59.99;99610.03;2565129;30;137452;-40
2021/11/01 13:57:17;;;;;;;3.38;0.88;;;14.00;99.90;;;12.79;60.01;99613.91;2568225;30;137819;-40
2021/11/01 13:59:50;;;;;;;5.60;0.65;;;14.10;99.90;;;12.74;62.05;99616.59;2567187;30;139185;-40
2021/11/01 14:33:28;;;;;;;4.03;0.80;;;13.80;99.90;;;12.42;61.48;99620.03;2568154;30;138435;-40
2021/11/01 16:18:50;;;;;;;2.60;0.60;;;11.80;99.90;;;10.20;70.83;99623.34;2570126;30;137334;-39
2021/11/01 16:21:19;;;;;;;3.92;0.80;;;11.80;99.90;;;10.07;71.17;99626.31;2569199;30;137180;-39
2021/11/01 16:23:50;;;;;;;3.55;0.57;;;11.70;99.90;;;9.96;72.58;99629.88;2571898;30;138248;-39
2021/11/01 16:26:29;;;;;;;4.80;1.00;;;11.60;99.90;;;9.87;72.56;99624.78;2568444;30;138138;-39
2021/11/01 16:29:14;;;;;;;4.38;0.82;;;11.50;99.90;;;9.74;72.98;99631.31;2568515;30;137261;-38
2021/11/01 16:31:47;;;;;;;2.60;0.60;;;11.40;99.90;;;9.64;73.70;99623.72;2569585;30;138337;-38
2021/11/01 16:34:29;;;;;;;3.35;0.65;;;11.30;99.90;;;9.57;73.98;99630.34;2569497;30;137478;-38
2021/11/01 16:39:47;;;;;;;3.00;0.80;;;11.10;99.90;;;9.53;73.70;99629.97;2569857;30;137532;-39
2021/11/01 16:42:29;;;;;;;4.72;1.00;;;11.10;99.90;;;9.53;74.06;99624.53;2571400;30;138112;-38
2021/11/01 16:45:08;;;;;;;3.90;0.70;;;11.00;99.90;;;9.49;74.05;99623.34;2568493;30;137679;-39
2021/11/01 16:47:41;;;;;;;2.80;0.80;;;11.00;99.90;;;9.40;73.87;99627.47;2569184;30;138832;-38
2021/11/01 16:50:11;;;;;;;3.10;0.70;;;11.00;99.90;;;9.38;73.84;99626.88;2568819;30;138844;-38
2021/11/01 16:52:40;;;;;;;4.50;0.85;;;10.90;99.90;;;9.32;74.04;99618.59;2568428;30;137944;-39
2021/11/01 16:55:16;;;;;;;7.45;1.05;;;10.90;99.90;;;9.21;74.42;99619.38;2568297;30;136895;-39
2021/11/01 16:57:51;;;;;;;5.45;0.80;;;10.80;99.90;;;9.08;74.98;99614.97;2570139;30;137779;-39
2021/11/01 17:00:27;;;;;;;3.63;0.60;;;10.70;99.90;;;9.00;75.48;99621.56;2566573;30;138113;-38
2021/11/01 17:30:49;;;;;;;4.22;1.38;;;10.10;99.90;;;8.40;77.88;99623.16;2569015;30;138937;-39
2021/11/01 18:42:11;;;;;;;4.53;1.40;;;9.30;99.90;;;7.60;82.77;99679.94;2568373;30;136669;-39
2021/11/01 18:52:48;;;;;;;6.18;1.83;;;9.20;99.90;;;7.62;83.74;99691.41;2567350;30;137512;-38
2021/11/01 18:55:16;;;;;;;3.28;1.30;;;9.20;99.90;;;7.67;83.57;99682.59;2569793;30;139339;-39
2021/11/01 18:57:48;;;;;;;4.13;1.10;;;9.30;99.90;;;7.69;83.62;99688.66;2568142;30;138349;-38
2021/11/01 19:00:17;;;;;;;4.93;1.20;;;9.30;99.90;;;7.74;83.78;99690.72;2569963;30;138023;-38
2021/11/01 19:02:48;;;;;;;3.67;1.30;;;9.30;99.90;;;7.81;83.57;99680.63;2569566;30;137142;-38
2021/11/01 20:02:38;;;;;;;3.40;1.00;;;9.60;99.90;;;8.07;81.69;99684.13;2569660;30;138133;-39
2021/11/01 20:06:58;;;;;;;4.80;1.20;;;9.30;99.90;;;7.63;83.72;99670.53;2566659;30;138071;-39
2021/11/01 20:12:34;;;;;;;5.63;1.30;;;9.20;99.90;;;7.57;84.30;99660.56;2569116;30;137124;-39
2021/11/01 20:15:36;;;;;;;6.60;1.20;;;9.20;99.90;;;7.51;84.42;99670.41;2568701;30;137366;-38
2021/11/01 21:27:00;;;;;;;5.53;1.77;;;8.30;99.90;;;6.56;91.13;99658.44;2567389;30;137317;-40
2021/11/01 21:29:36;;;;;;;3.67;1.63;;;8.30;99.90;;;6.55;91.14;99654.91;2568016;30;137606;-40
2021/11/01 21:32:05;;;;;;;4.95;1.67;;;8.20;99.90;;;6.58;90.81;99649.06;2568420;30;138677;-40
2021/11/01 21:34:39;;;;;;;3.15;1.67;;;8.30;99.90;;;6.56;91.30;99648.44;2567363;30;136899;-40
2021/11/01 21:37:08;;;;;;;6.50;1.80;;;8.20;99.90;;;6.47;91.28;99647.84;2568779;30;138512;-40
2021/11/01 21:39:37;;;;;;;5.43;1.60;;;8.20;99.90;;;6.36;91.50;99640.38;2567870;30;136788;-40
2021/11/01 21:42:05;;;;;;;6.22;1.80;;;8.10;99.90;;;6.38;91.80;99646.44;2566731;30;138839;-40
2021/11/01 21:44:37;;;;;;;4.93;2.22;;;8.10;99.90;;;6.32;91.89;99641.84;2565584;30;136807;-40
2021/11/01 21:47:07;;;;;;;3.42;1.42;;;8.00;99.90;;;6.27;92.01;99645.22;2568728;30;138378;-40
2021/11/01 21:49:35;;;;;;;6.60;1.80;;;8.00;99.90;;;6.28;92.24;99641.44;2567823;30;137613;-40
2021/11/01 21:52:03;;;;;;;3.85;1.40;;;7.90;99.90;;;6.27;92.84;99642.50;2568021;30;137149;-40
2021/11/01 21:54:42;;;;;;;5.53;1.60;;;8.00;99.90;;;6.24;93.40;99636.66;2568566;30;136969;-40